Calgary, Alberta

3:19 PM MDT on September 23, 2014 (GMT -0600)
Springbank | Change Station
CLOSE
Current Station
Airport
Location: Calgary Springbank,
Elevation: 3937 ft
Nearby Weather Stations

Elev 3937 ft 51.10 °N, 114.37 °W | Updated 19 minutes ago

Clear
Clear
64 °F
Feels Like 64 °F
N
9
Wind Variable Wind from SSE

Today is forecast to be nearly the same temperature as yesterday.

Today
High -- | Low -- °F
--% Chance of Precip.
Yesterday
High -- | Low -- °F
Precip. -- in
7:25 AM 7:33 PM
Waning Crescent, 0% visible
Pressure 29.95 in
Visibility 9.0 miles
Clouds Clear
Dew Point 52 °F
Humidity 64%
Rainfall 0.00 in
Snow Depth Not available.
UV 4 out of 12
Pollen Not available.
Air Quality Not available.
Flu Activity Not available.
METAR CYBW 232100Z AUTO 15008KT 100V190 9SM CLR 18/11 A2994 RMK SLP140 DENSITY ALT 5200FT

More Conditions Fewer Conditions

Pressure 29.95 in
Visibility 9.0 miles
Clouds Clear
Dew Point 52 °F
Humidity 64%
Rainfall 0.00 in
Snow Depth Not available.
UV 4 out of 12
Pollen Not available.
Air Quality Not available.
Flu Activity Not available.
METAR CYBW 232100Z AUTO 15008KT 100V190 9SM CLR 18/11 A2994 RMK SLP140 DENSITY ALT 5200FT

More Conditions Fewer Conditions

10-Day Weather Forecast

Almanac

Astronomy

Sep. 23, 2014 Rise Set
Actual Time 7:25 AM MDT 7:33 PM MDT
Civil Twilight 6:52 AM MDT 8:06 PM MDT
Nautical Twilight 6:13 AM MDT 8:44 PM MDT
Astronomical Twilight 5:32 AM MDT 9:25 PM MDT
Moon 6:52 AM MDT 7:11 PM MDT
Length of Visible Light 13h 13m
Length of Day
12h 07m
Tomorrow will be 3m 51s shorter.
Waning Crescent, 0% of the Moon is Illuminated
Today
Waning Crescent
Sep 24
New
Oct 1
First Quarter
Oct 8
Full
Oct 15
Last Quarter

Today's Extremes

Country Highs Country Lows

Community

WunderPhotos

Upload Photos

1,755,793 photos uploaded!

WunderBlogs® & News

By Dr. Jeff Masters
Director of Meteorology, Weather Underground
By Kari Strenfel
Meteorologist, Weather Underground
By Christopher C. Burt
Weather Historian, Weather Underground
September 23, 2014
September 23, 2014
September 23, 2014

Nearby

Snow Depth

Not available.

Earthquake Activity

City Distance Mag. Time & Date
No recent earthquake activity has been reported nearby.
Minimum magnitude displayed is 2.5.

Coastal Water Temperatures

Place Temperature
No Stations Reporting

Nearby Weather Stations